createdAt,value
2023-01-08T00:02:29.997Z,31.80
2023-01-08T00:05:01.795Z,33.00
2023-01-08T00:07:33.477Z,33.80
2023-01-08T00:12:35.593Z,31.30
2023-01-08T00:15:08.734Z,32.10
2023-01-08T00:17:40.373Z,31.00
2023-01-08T00:20:12.951Z,30.00
2023-01-08T00:22:44.962Z,30.80
2023-01-08T00:25:16.856Z,29.30
2023-01-08T00:27:48.794Z,27.60
2023-01-08T00:30:20.646Z,28.30
2023-01-08T00:32:52.379Z,26.00
2023-01-08T00:35:24.244Z,26.80
2023-01-08T00:40:26.272Z,28.10
2023-01-08T00:45:28.034Z,26.30
2023-01-08T00:50:30.001Z,27.20
2023-01-08T00:55:32.661Z,28.30
2023-01-08T00:58:04.414Z,28.70
2023-01-08T01:00:36.066Z,24.90
2023-01-08T01:05:38.394Z,24.70
2023-01-08T01:08:10.053Z,23.30
2023-01-08T01:13:13.331Z,22.80
2023-01-08T01:15:45.000Z,21.90
2023-01-08T01:18:16.754Z,24.50
2023-01-08T01:23:19.022Z,27.50
2023-01-08T01:25:50.716Z,23.50
2023-01-08T01:28:23.228Z,21.70
2023-01-08T01:30:58.731Z,22.10
2023-01-08T01:33:30.410Z,20.70
2023-01-08T01:36:05.937Z,20.50
2023-01-08T01:38:37.620Z,21.40
2023-01-08T01:41:10.956Z,20.20
2023-01-08T01:43:44.641Z,20.00
2023-01-08T01:46:24.850Z,19.60
2023-01-08T01:49:01.021Z,20.70
2023-01-08T01:51:37.280Z,19.30
2023-01-08T01:54:12.519Z,21.40
2023-01-08T01:56:46.428Z,20.10
2023-01-08T01:59:18.664Z,19.20
2023-01-08T02:01:50.850Z,21.20
2023-01-08T02:04:22.807Z,19.50
2023-01-08T02:07:02.869Z,18.60
2023-01-08T02:09:44.260Z,19.10
2023-01-08T02:12:22.160Z,23.00
2023-01-08T02:15:06.649Z,17.70
2023-01-08T02:17:50.645Z,18.50
2023-01-08T02:20:26.467Z,18.00
2023-01-08T02:23:15.435Z,17.30
2023-01-08T02:26:11.749Z,16.90
2023-01-08T02:28:48.050Z,17.90
2023-01-08T02:31:21.512Z,17.30
2023-01-08T02:33:53.566Z,18.30
2023-01-08T02:36:35.112Z,18.20
2023-01-08T02:39:21.992Z,16.80
2023-01-08T02:42:10.646Z,17.60
2023-01-08T02:44:58.454Z,16.40
2023-01-08T02:47:34.216Z,16.60
2023-01-08T02:50:13.807Z,15.70
2023-01-08T02:52:53.775Z,16.30
2023-01-08T02:55:27.941Z,17.00
2023-01-08T02:58:03.134Z,18.60
2023-01-08T03:00:36.056Z,17.10
2023-01-08T03:03:13.619Z,15.70
2023-01-08T03:05:49.428Z,17.10
2023-01-08T03:08:22.351Z,17.40
2023-01-08T03:10:57.440Z,15.40
2023-01-08T03:13:35.981Z,16.50
2023-01-08T03:16:15.227Z,17.80
2023-01-08T03:18:52.404Z,17.00
2023-01-08T03:21:24.724Z,17.90
2023-01-08T03:23:58.024Z,16.00
2023-01-08T03:26:31.634Z,17.50
2023-01-08T03:29:05.963Z,16.30
2023-01-08T03:31:37.829Z,15.50
2023-01-08T03:34:11.514Z,16.50
2023-01-08T03:36:47.498Z,16.80
2023-01-08T03:39:23.996Z,17.00
2023-01-08T03:41:59.721Z,15.60
2023-01-08T03:44:31.527Z,16.00
2023-01-08T03:47:03.862Z,15.70
2023-01-08T03:49:36.586Z,15.60
2023-01-08T03:52:08.430Z,15.40
2023-01-08T03:54:40.231Z,16.00
2023-01-08T03:57:11.887Z,14.20
2023-01-08T04:02:14.318Z,15.80
2023-01-08T04:04:46.188Z,17.00
2023-01-08T04:07:18.032Z,19.60
2023-01-08T04:09:49.654Z,20.80
2023-01-08T04:14:51.387Z,17.80
2023-01-08T04:19:53.165Z,17.10
2023-01-08T04:24:55.069Z,17.00
2023-01-08T04:27:26.682Z,17.10
2023-01-08T04:32:28.465Z,16.20
2023-01-08T04:37:30.255Z,15.50
2023-01-08T04:42:31.947Z,15.30
2023-01-08T04:47:33.882Z,18.70
2023-01-08T04:50:06.005Z,19.50
2023-01-08T04:52:37.732Z,19.60
2023-01-08T04:55:10.334Z,20.70
2023-01-08T04:57:42.022Z,21.80
2023-01-08T05:02:45.314Z,18.00
2023-01-08T05:05:17.108Z,17.30
2023-01-08T05:10:18.864Z,20.10
2023-01-08T05:15:20.650Z,19.10
2023-01-08T05:20:48.397Z,18.80
2023-01-08T05:23:32.730Z,21.30
2023-01-08T05:26:11.425Z,17.80
2023-01-08T05:28:54.867Z,17.20
2023-01-08T05:31:38.160Z,16.30
2023-01-08T05:34:21.507Z,15.60
2023-01-08T05:36:54.937Z,17.40
2023-01-08T05:41:56.727Z,22.60
2023-01-08T05:46:58.895Z,17.90
2023-01-08T05:49:30.676Z,17.70
2023-01-08T05:52:02.305Z,19.00
2023-01-08T05:57:04.174Z,18.80
2023-01-08T05:59:35.817Z,18.20
2023-01-08T06:04:38.057Z,17.10
2023-01-08T06:07:09.717Z,17.00
2023-01-08T06:12:11.537Z,19.30
2023-01-08T06:14:43.279Z,18.10
2023-01-08T06:19:48.227Z,18.30
2023-01-08T06:22:19.863Z,18.80
2023-01-08T06:27:21.636Z,18.20
2023-01-08T06:32:23.431Z,19.80
2023-01-08T06:37:25.432Z,17.90
2023-01-08T06:42:27.346Z,18.00
2023-01-08T06:44:58.979Z,19.20
2023-01-08T06:50:01.094Z,19.80
2023-01-08T06:52:32.712Z,19.60
2023-01-08T06:57:36.542Z,18.00
2023-01-08T07:02:39.891Z,17.90
2023-01-08T07:05:13.582Z,21.50
2023-01-08T07:07:45.199Z,18.70
2023-01-08T07:12:46.967Z,17.20
2023-01-08T07:17:48.888Z,18.80
2023-01-08T07:22:50.786Z,19.10
2023-01-08T07:27:53.067Z,20.10
2023-01-08T07:30:29.878Z,18.20
2023-01-08T07:33:02.696Z,19.30
2023-01-08T07:35:35.481Z,20.40
2023-01-08T07:38:07.516Z,21.70
2023-01-08T07:40:39.605Z,19.20
2023-01-08T07:43:12.576Z,18.80
2023-01-08T07:45:44.575Z,18.20
2023-01-08T07:48:16.621Z,17.50
2023-01-08T07:50:48.464Z,18.40
2023-01-08T07:53:20.163Z,18.40
2023-01-08T07:58:22.318Z,19.00
2023-01-08T08:00:54.389Z,19.30
2023-01-08T08:03:26.860Z,19.70
2023-01-08T08:06:00.599Z,19.80
2023-01-08T08:08:32.253Z,20.30
2023-01-08T08:13:34.623Z,18.70
2023-01-08T08:16:10.038Z,20.10
2023-01-08T08:18:42.607Z,21.90
2023-01-08T08:21:14.274Z,19.20
2023-01-08T08:26:16.124Z,19.70
2023-01-08T08:28:47.985Z,19.30
2023-01-08T08:31:19.835Z,19.00
2023-01-08T08:33:51.604Z,18.20
2023-01-08T08:38:53.491Z,18.50
2023-01-08T08:43:55.684Z,18.00
2023-01-08T08:46:27.398Z,17.10
2023-01-08T08:48:59.135Z,18.40
2023-01-08T08:51:30.904Z,16.90
2023-01-08T08:54:02.962Z,17.10
2023-01-08T08:56:34.656Z,23.10
2023-01-08T08:59:06.486Z,25.30
2023-01-08T09:01:38.254Z,21.10
2023-01-08T09:04:09.982Z,17.60
2023-01-08T09:09:11.838Z,17.20
2023-01-08T09:11:43.810Z,16.10
2023-01-08T09:14:15.827Z,16.30
2023-01-08T09:16:47.448Z,17.30
2023-01-08T09:21:50.422Z,18.40
2023-01-08T09:24:22.051Z,17.00
2023-01-08T09:26:55.542Z,15.60
2023-01-08T09:29:27.467Z,14.90
2023-01-08T09:32:00.491Z,14.70
2023-01-08T09:34:32.596Z,14.50
2023-01-08T09:37:04.644Z,12.70
2023-01-08T09:39:37.144Z,13.50
2023-01-08T09:42:09.463Z,13.50
2023-01-08T09:44:44.174Z,12.90
2023-01-08T09:47:26.251Z,13.70
2023-01-08T09:50:01.314Z,13.80
2023-01-08T09:52:34.270Z,14.30
2023-01-08T09:55:11.042Z,12.30
2023-01-08T09:57:43.071Z,12.50
2023-01-08T10:00:22.188Z,12.10
2023-01-08T10:02:55.865Z,12.10
2023-01-08T10:05:29.031Z,11.90
2023-01-08T10:08:00.721Z,11.00
2023-01-08T10:13:03.508Z,11.60
2023-01-08T10:15:35.334Z,10.70
2023-01-08T10:18:12.088Z,11.50
2023-01-08T10:20:43.769Z,12.10
2023-01-08T10:23:17.011Z,11.70
2023-01-08T10:25:54.587Z,10.90
2023-01-08T10:28:28.083Z,8.70
2023-01-08T10:31:07.148Z,10.80
2023-01-08T10:33:44.544Z,11.30
2023-01-08T10:36:19.265Z,11.10
2023-01-08T10:38:56.764Z,11.40
2023-01-08T10:41:29.339Z,12.10
2023-01-08T10:44:04.442Z,11.30
2023-01-08T10:46:43.027Z,10.90
2023-01-08T10:49:21.216Z,11.30
2023-01-08T10:51:55.606Z,12.60
2023-01-08T10:54:35.532Z,11.10
2023-01-08T10:57:23.097Z,10.90
2023-01-08T10:59:54.998Z,12.10
2023-01-08T11:02:39.632Z,10.70
2023-01-08T11:05:12.499Z,10.30
2023-01-08T11:07:44.512Z,10.80
2023-01-08T11:10:26.321Z,11.30
2023-01-08T11:13:00.148Z,11.10
2023-01-08T11:15:38.002Z,10.20
2023-01-08T11:18:22.887Z,10.70
2023-01-08T11:21:07.050Z,10.10
2023-01-08T11:23:38.925Z,10.50
2023-01-08T11:26:15.977Z,10.40
2023-01-08T11:28:56.016Z,10.80
2023-01-08T11:31:35.941Z,9.90
2023-01-08T11:34:16.573Z,11.20
2023-01-08T11:36:53.970Z,10.90
2023-01-08T11:39:26.317Z,10.00
2023-01-08T11:42:21.638Z,11.80
2023-01-08T11:45:12.544Z,11.90
2023-01-08T11:48:10.122Z,10.40
2023-01-08T11:50:51.175Z,10.20
2023-01-08T11:53:28.878Z,10.20
2023-01-08T11:56:14.619Z,10.60
2023-01-08T11:59:03.110Z,10.40
2023-01-08T12:01:43.832Z,11.60
2023-01-08T12:04:42.201Z,11.70
2023-01-08T12:07:20.226Z,11.90
2023-01-08T12:09:59.859Z,12.50
2023-01-08T12:12:49.421Z,13.60
2023-01-08T12:15:29.340Z,16.40
2023-01-08T12:18:18.415Z,16.00
2023-01-08T12:20:57.293Z,15.40
2023-01-08T12:23:40.594Z,15.20
2023-01-08T12:26:27.462Z,16.00
2023-01-08T12:29:27.169Z,17.60
2023-01-08T12:32:13.540Z,17.10
2023-01-08T12:34:55.434Z,18.60
2023-01-08T12:37:32.997Z,18.40
2023-01-08T12:40:14.774Z,18.00
2023-01-08T12:43:00.050Z,17.90
2023-01-08T12:45:36.270Z,17.20
2023-01-08T12:48:12.348Z,16.90
2023-01-08T12:50:54.379Z,17.30
2023-01-08T12:53:38.145Z,16.80
2023-01-08T12:56:17.596Z,16.40
2023-01-08T12:59:08.075Z,15.90
2023-01-08T13:01:46.975Z,16.60
2023-01-08T13:04:19.814Z,16.10
2023-01-08T13:07:00.400Z,15.70
2023-01-08T13:09:33.797Z,14.90
2023-01-08T13:12:05.836Z,15.10
2023-01-08T13:14:48.042Z,14.60
2023-01-08T13:17:24.844Z,14.70
2023-01-08T13:20:00.669Z,15.50
2023-01-08T13:22:33.870Z,16.10
2023-01-08T13:28:43.417Z,14.50
2023-01-08T13:31:27.556Z,13.60
2023-01-08T13:33:56.268Z,13.60
2023-01-08T13:36:26.252Z,13.60
2023-01-08T13:39:20.808Z,14.70
2023-01-08T13:42:00.630Z,14.50
2023-01-08T13:44:33.632Z,14.10
2023-01-08T13:47:05.947Z,13.50
2023-01-08T13:49:40.595Z,13.80
2023-01-08T13:52:34.239Z,13.70
2023-01-08T13:55:05.423Z,12.80
2023-01-08T13:57:40.163Z,12.30
2023-01-08T14:00:17.135Z,12.10
2023-01-08T14:02:49.559Z,12.90
2023-01-08T14:05:31.138Z,13.60
2023-01-08T14:07:59.297Z,12.00
2023-01-08T14:10:29.282Z,12.00
2023-01-08T14:13:05.977Z,13.50
2023-01-08T14:15:35.575Z,13.80
2023-01-08T14:18:05.304Z,12.70
2023-01-08T14:20:35.319Z,12.90
2023-01-08T14:23:11.069Z,13.40
2023-01-08T14:25:41.295Z,12.40
2023-01-08T14:28:17.572Z,14.30
2023-01-08T14:30:50.037Z,14.30
2023-01-08T14:33:22.295Z,13.30
2023-01-08T14:35:51.598Z,14.30
2023-01-08T14:38:19.997Z,14.60
2023-01-08T14:40:57.685Z,15.10
2023-01-08T14:43:26.256Z,13.60
2023-01-08T14:45:55.137Z,12.80
2023-01-08T14:48:29.129Z,12.60
2023-01-08T14:51:04.702Z,13.40
2023-01-08T14:53:36.556Z,13.60
2023-01-08T14:56:07.095Z,14.30
2023-01-08T14:58:39.965Z,14.00
2023-01-08T15:01:15.792Z,14.00
2023-01-08T15:03:45.914Z,13.80
2023-01-08T15:06:24.850Z,12.80
2023-01-08T15:08:53.717Z,13.80
2023-01-08T15:11:23.816Z,14.20
2023-01-08T15:13:53.548Z,14.90
2023-01-08T15:16:28.975Z,14.40
2023-01-08T15:19:05.136Z,14.70
2023-01-08T15:21:34.413Z,14.70
2023-01-08T15:24:04.561Z,15.60
2023-01-08T15:26:33.500Z,16.10
2023-01-08T15:29:04.749Z,15.40
2023-01-08T15:31:45.292Z,15.80
2023-01-08T15:34:13.921Z,16.40
2023-01-08T15:36:42.071Z,17.20
2023-01-08T15:39:10.475Z,17.60
2023-01-08T15:41:57.967Z,17.50
2023-01-08T15:44:26.246Z,16.90
2023-01-08T15:46:54.760Z,16.50
2023-01-08T15:49:23.137Z,16.10
2023-01-08T15:51:52.485Z,17.80
2023-01-08T15:54:24.276Z,17.10
2023-01-08T15:56:52.585Z,17.10
2023-01-08T15:59:20.981Z,17.80
2023-01-08T16:01:49.329Z,19.00
2023-01-08T16:04:17.681Z,18.80
2023-01-08T16:06:45.987Z,20.40
2023-01-08T16:09:14.350Z,19.10
2023-01-08T16:11:42.665Z,18.80
2023-01-08T16:14:11.732Z,20.50
2023-01-08T16:16:39.974Z,18.90
2023-01-08T16:19:08.149Z,19.00
2023-01-08T16:21:36.330Z,19.50
2023-01-08T16:24:06.130Z,19.50
2023-01-08T16:26:34.480Z,19.50
2023-01-08T16:29:03.008Z,21.20
2023-01-08T16:31:31.308Z,22.20
2023-01-08T16:34:02.454Z,25.20
2023-01-08T16:36:30.923Z,25.30
2023-01-08T16:38:59.163Z,26.10
2023-01-08T16:41:27.563Z,25.50
2023-01-08T16:43:56.233Z,27.50
2023-01-08T16:46:24.691Z,25.90
2023-01-08T16:48:52.941Z,27.20
2023-01-08T16:51:21.858Z,26.60
2023-01-08T16:53:50.160Z,25.20
2023-01-08T16:56:18.534Z,28.10
2023-01-08T16:58:50.737Z,28.40
2023-01-08T17:01:19.276Z,25.90
2023-01-08T17:03:47.642Z,25.00
2023-01-08T17:06:16.182Z,28.80
2023-01-08T17:08:44.626Z,28.20
2023-01-08T17:11:14.845Z,26.80
2023-01-08T17:13:43.856Z,26.20
2023-01-08T17:16:16.779Z,26.40
2023-01-08T17:18:45.695Z,25.20
2023-01-08T17:21:14.840Z,23.90
2023-01-08T17:23:43.607Z,25.60
2023-01-08T17:26:20.286Z,25.10
2023-01-08T17:28:48.499Z,25.40
2023-01-08T17:31:18.893Z,28.10
2023-01-08T17:33:49.449Z,27.70
2023-01-08T17:36:19.531Z,30.60
2023-01-08T17:38:49.944Z,30.90
2023-01-08T17:41:33.275Z,30.80
2023-01-08T17:44:01.574Z,31.00
2023-01-08T17:46:30.235Z,32.40
2023-01-08T17:48:58.544Z,31.50
2023-01-08T17:51:27.083Z,32.50
2023-01-08T17:53:56.388Z,33.40
2023-01-08T17:56:26.400Z,30.90
2023-01-08T17:58:55.096Z,33.10
2023-01-08T18:01:23.495Z,35.40
2023-01-08T18:03:52.643Z,34.20
2023-01-08T18:06:21.858Z,33.00
2023-01-08T18:08:50.249Z,32.40
2023-01-08T18:11:18.425Z,32.60
2023-01-08T18:13:46.665Z,34.10
2023-01-08T18:16:15.238Z,34.80
2023-01-08T18:18:43.747Z,36.70
2023-01-08T18:21:12.724Z,35.60
2023-01-08T18:23:42.296Z,34.40
2023-01-08T18:26:12.367Z,35.00
2023-01-08T18:28:41.477Z,35.30
2023-01-08T18:31:11.145Z,32.70
2023-01-08T18:33:40.830Z,33.10
2023-01-08T18:36:11.791Z,36.50
2023-01-08T18:38:42.048Z,35.90
2023-01-08T18:41:33.615Z,39.60
2023-01-08T18:44:03.284Z,41.60
2023-01-08T18:46:33.895Z,42.30
2023-01-08T18:49:04.528Z,44.10
2023-01-08T18:51:33.281Z,46.30
2023-01-08T18:54:03.964Z,42.80
2023-01-08T18:56:34.526Z,47.00
2023-01-08T18:59:04.926Z,42.60
2023-01-08T19:01:34.564Z,42.60
2023-01-08T19:04:03.276Z,47.30
2023-01-08T19:06:31.603Z,50.80
2023-01-08T19:09:00.290Z,48.70
2023-01-08T19:11:28.659Z,48.90
2023-01-08T19:13:57.503Z,50.00
2023-01-08T19:16:26.260Z,51.60
2023-01-08T19:18:58.177Z,51.30
2023-01-08T19:21:27.929Z,56.30
2023-01-08T19:23:56.333Z,55.90
2023-01-08T19:26:25.193Z,60.20
2023-01-08T19:28:54.082Z,58.90
2023-01-08T19:31:23.070Z,54.10
2023-01-08T19:33:52.216Z,53.80
2023-01-08T19:36:20.764Z,60.70
2023-01-08T19:38:49.216Z,65.10
2023-01-08T19:41:51.309Z,56.70
2023-01-08T19:46:47.124Z,53.30
2023-01-08T19:49:15.398Z,52.50
2023-01-08T19:51:43.751Z,53.00
2023-01-08T19:54:12.605Z,52.40
2023-01-08T19:56:41.101Z,53.60
2023-01-08T19:59:10.878Z,57.10
2023-01-08T20:01:40.546Z,57.40
2023-01-08T20:04:12.374Z,60.00
2023-01-08T20:06:40.912Z,58.30
2023-01-08T20:09:09.381Z,57.70
2023-01-08T20:11:38.135Z,55.90
2023-01-08T20:14:06.901Z,54.10
2023-01-08T20:16:35.378Z,53.60
2023-01-08T20:19:04.315Z,52.30
2023-01-08T20:21:33.853Z,52.10
2023-01-08T20:24:06.323Z,50.00
2023-01-08T20:26:36.758Z,49.30
2023-01-08T20:29:05.736Z,51.80
2023-01-08T20:31:35.396Z,52.80
2023-01-08T20:34:05.855Z,57.20
2023-01-08T20:36:36.157Z,55.20
2023-01-08T20:39:06.734Z,56.10
2023-01-08T20:41:35.621Z,48.80
2023-01-08T20:44:05.993Z,49.10
2023-01-08T20:46:36.143Z,47.90
2023-01-08T20:49:06.770Z,47.60
2023-01-08T20:51:36.671Z,47.60
2023-01-08T20:54:07.513Z,45.70
2023-01-08T20:56:35.999Z,45.40
2023-01-08T20:59:04.588Z,45.50
2023-01-08T21:01:33.532Z,46.00
2023-01-08T21:04:03.600Z,44.90
2023-01-08T21:06:33.281Z,44.20
2023-01-08T21:09:21.280Z,41.80
2023-01-08T21:11:53.839Z,43.60
2023-01-08T21:14:22.270Z,44.70
2023-01-08T21:16:50.587Z,42.30
2023-01-08T21:19:18.867Z,43.50
2023-01-08T21:21:47.112Z,44.30
2023-01-08T21:24:15.550Z,42.40
2023-01-08T21:26:44.744Z,42.40
2023-01-08T21:29:13.989Z,43.60
2023-01-08T21:31:42.488Z,38.80
2023-01-08T21:34:11.100Z,35.60
2023-01-08T21:36:39.429Z,38.00
2023-01-08T21:39:07.810Z,38.90
2023-01-08T21:41:50.653Z,40.10
2023-01-08T21:44:39.229Z,39.00
2023-01-08T21:47:09.470Z,38.60
2023-01-08T21:49:38.037Z,36.20
2023-01-08T21:52:24.965Z,36.50
2023-01-08T21:54:53.519Z,36.70
2023-01-08T21:57:25.100Z,38.20
2023-01-08T21:59:55.534Z,38.00
2023-01-08T22:02:24.245Z,36.20
2023-01-08T22:04:55.552Z,35.20
2023-01-08T22:07:23.911Z,34.70
2023-01-08T22:09:52.211Z,35.20
2023-01-08T22:12:21.957Z,35.30
2023-01-08T22:14:52.801Z,35.90
2023-01-08T22:17:21.267Z,36.20
2023-01-08T22:19:49.796Z,34.90
2023-01-08T22:22:18.187Z,34.80
2023-01-08T22:24:46.384Z,36.60
2023-01-08T22:27:14.652Z,35.60
2023-01-08T22:29:42.866Z,34.30
2023-01-08T22:32:11.215Z,35.10
2023-01-08T22:34:39.596Z,34.70
2023-01-08T22:37:07.835Z,37.00
2023-01-08T22:39:36.149Z,36.20
2023-01-08T22:42:04.867Z,35.00
2023-01-08T22:44:33.271Z,35.90
2023-01-08T22:47:02.023Z,34.60
2023-01-08T22:49:30.244Z,33.30
2023-01-08T22:51:58.469Z,31.60
2023-01-08T22:54:26.826Z,33.30
2023-01-08T22:56:55.021Z,33.70
2023-01-08T22:59:23.267Z,34.00
2023-01-08T23:01:51.458Z,34.50
2023-01-08T23:04:19.705Z,34.30
2023-01-08T23:06:48.193Z,34.80
2023-01-08T23:09:16.673Z,35.10
2023-01-08T23:11:44.853Z,37.20
2023-01-08T23:14:14.937Z,38.50
2023-01-08T23:16:43.324Z,37.80
2023-01-08T23:19:11.901Z,37.60
2023-01-08T23:21:40.128Z,63.00
2023-01-08T23:24:12.837Z,47.70
2023-01-08T23:26:41.573Z,38.10
2023-01-08T23:29:10.217Z,41.20
2023-01-08T23:31:38.469Z,40.90
2023-01-08T23:34:06.978Z,42.50
2023-01-08T23:36:35.442Z,46.80
2023-01-08T23:39:04.748Z,44.20
2023-01-08T23:41:34.985Z,39.40
2023-01-08T23:44:05.690Z,38.50
2023-01-08T23:46:34.258Z,37.50
2023-01-08T23:49:02.544Z,36.50
2023-01-08T23:51:30.818Z,36.40
2023-01-08T23:53:59.170Z,35.10
2023-01-08T23:56:27.715Z,35.40
2023-01-08T23:58:56.590Z,34.10
